Ndola, Zambia
Current Conditions -  °F | °C
As of 2:00 AM on Saturday 29 Nov 2014 (Local Time) from FLKK Reporting Station
Clear Clear  
Wind Chill: 73°   Ceiling: Unl
Heat Index: 73°   Visibility: 6mi
Dew Point: 50°   Wind: 5mph
Humidity: 44%   Direction: 280°W
Pressure: 30.03"   Gusts: NA
Location:  12.97°S, 28.64°E
Report Text: FLKK 290000Z 28004KT CAVOK 23/10 Q1017
Loading
Personal Weather Stations






























Interactive Weather Map New forecast layout! Learn more

10-Day Weather Forecast

Advertisements
Track Severe Weather on mobile